sensor_id;sensor_type;location;lat;lon;timestamp;P1;durP1;ratioP1;P2;durP2;ratioP2
50585;SDS011;36542;51.700;8.846;2022-10-12T00:01:27;7.43;;;3.97;;
50585;SDS011;36542;51.700;8.846;2022-10-12T00:03:53;8.87;;;4.30;;
50585;SDS011;36542;51.700;8.846;2022-10-12T00:06:19;11.73;;;3.67;;
50585;SDS011;36542;51.700;8.846;2022-10-12T00:08:47;10.87;;;4.10;;
50585;SDS011;36542;51.700;8.846;2022-10-12T00:11:15;10.33;;;4.00;;
50585;SDS011;36542;51.700;8.846;2022-10-12T00:13:42;10.10;;;3.40;;
50585;SDS011;36542;51.700;8.846;2022-10-12T00:16:08;7.97;;;3.57;;
50585;SDS011;36542;51.700;8.846;2022-10-12T00:18:35;6.43;;;3.33;;
50585;SDS011;36542;51.700;8.846;2022-10-12T00:21:09;15.93;;;5.40;;
50585;SDS011;36542;51.700;8.846;2022-10-12T00:23:36;8.10;;;3.53;;
50585;SDS011;36542;51.700;8.846;2022-10-12T00:26:03;6.60;;;3.07;;
50585;SDS011;36542;51.700;8.846;2022-10-12T00:28:30;11.50;;;4.20;;
50585;SDS011;36542;51.700;8.846;2022-10-12T00:30:56;12.80;;;3.53;;
50585;SDS011;36542;51.700;8.846;2022-10-12T00:33:22;7.87;;;3.17;;
50585;SDS011;36542;51.700;8.846;2022-10-12T00:35:48;8.23;;;3.00;;
50585;SDS011;36542;51.700;8.846;2022-10-12T00:38:14;9.53;;;3.47;;
50585;SDS011;36542;51.700;8.846;2022-10-12T00:40:39;10.37;;;3.60;;
50585;SDS011;36542;51.700;8.846;2022-10-12T00:43:23;7.20;;;3.43;;
50585;SDS011;36542;51.700;8.846;2022-10-12T00:46:02;10.50;;;3.57;;
50585;SDS011;36542;51.700;8.846;2022-10-12T00:48:33;9.33;;;3.63;;
50585;SDS011;36542;51.700;8.846;2022-10-12T00:50:59;9.73;;;3.70;;
50585;SDS011;36542;51.700;8.846;2022-10-12T00:53:27;6.50;;;2.97;;
50585;SDS011;36542;51.700;8.846;2022-10-12T00:55:59;8.17;;;2.83;;
50585;SDS011;36542;51.700;8.846;2022-10-12T00:58:27;7.80;;;3.70;;
50585;SDS011;36542;51.700;8.846;2022-10-12T01:00:55;14.20;;;3.90;;
50585;SDS011;36542;51.700;8.846;2022-10-12T01:03:25;10.27;;;2.83;;
50585;SDS011;36542;51.700;8.846;2022-10-12T01:05:50;7.33;;;3.40;;
50585;SDS011;36542;51.700;8.846;2022-10-12T01:08:16;10.63;;;2.50;;
50585;SDS011;36542;51.700;8.846;2022-10-12T01:10:41;12.00;;;3.20;;
50585;SDS011;36542;51.700;8.846;2022-10-12T01:13:07;8.13;;;3.00;;
50585;SDS011;36542;51.700;8.846;2022-10-12T01:15:38;12.20;;;3.20;;
50585;SDS011;36542;51.700;8.846;2022-10-12T01:18:13;7.30;;;2.83;;
50585;SDS011;36542;51.700;8.846;2022-10-12T01:38:02;10.80;;;3.20;;
50585;SDS011;36542;51.700;8.846;2022-10-12T01:40:50;13.77;;;3.17;;
50585;SDS011;36542;51.700;8.846;2022-10-12T01:43:51;7.93;;;2.70;;
50585;SDS011;36542;51.700;8.846;2022-10-12T01:48:43;7.43;;;2.40;;
50585;SDS011;36542;51.700;8.846;2022-10-12T01:51:11;11.77;;;3.60;;
50585;SDS011;36542;51.700;8.846;2022-10-12T01:53:50;7.70;;;2.40;;
50585;SDS011;36542;51.700;8.846;2022-10-12T01:59:30;6.97;;;2.43;;
50585;SDS011;36542;51.700;8.846;2022-10-12T02:08:30;9.77;;;3.33;;
50585;SDS011;36542;51.700;8.846;2022-10-12T02:11:12;12.33;;;2.80;;
50585;SDS011;36542;51.700;8.846;2022-10-12T02:13:41;10.27;;;3.10;;
50585;SDS011;36542;51.700;8.846;2022-10-12T02:16:11;10.40;;;2.93;;
50585;SDS011;36542;51.700;8.846;2022-10-12T02:18:41;7.83;;;2.73;;
50585;SDS011;36542;51.700;8.846;2022-10-12T02:21:09;6.13;;;2.43;;
50585;SDS011;36542;51.700;8.846;2022-10-12T02:23:39;9.93;;;2.97;;
50585;SDS011;36542;51.700;8.846;2022-10-12T02:26:06;7.03;;;2.40;;
50585;SDS011;36542;51.700;8.846;2022-10-12T02:28:32;8.57;;;3.53;;
50585;SDS011;36542;51.700;8.846;2022-10-12T02:31:01;6.73;;;3.33;;
50585;SDS011;36542;51.700;8.846;2022-10-12T02:33:31;10.40;;;3.50;;
50585;SDS011;36542;51.700;8.846;2022-10-12T02:36:10;11.90;;;4.00;;
50585;SDS011;36542;51.700;8.846;2022-10-12T02:38:42;14.30;;;3.60;;
50585;SDS011;36542;51.700;8.846;2022-10-12T02:41:29;7.43;;;3.47;;
50585;SDS011;36542;51.700;8.846;2022-10-12T02:44:01;10.77;;;3.50;;
50585;SDS011;36542;51.700;8.846;2022-10-12T02:46:30;7.63;;;3.30;;
50585;SDS011;36542;51.700;8.846;2022-10-12T02:48:57;10.63;;;3.00;;
50585;SDS011;36542;51.700;8.846;2022-10-12T02:51:25;8.47;;;3.40;;
50585;SDS011;36542;51.700;8.846;2022-10-12T02:53:53;10.30;;;3.50;;
50585;SDS011;36542;51.700;8.846;2022-10-12T02:56:19;14.97;;;3.93;;
50585;SDS011;36542;51.700;8.846;2022-10-12T02:58:45;9.07;;;3.47;;
50585;SDS011;36542;51.700;8.846;2022-10-12T03:01:11;11.63;;;3.57;;
50585;SDS011;36542;51.700;8.846;2022-10-12T03:03:37;6.87;;;2.90;;
50585;SDS011;36542;51.700;8.846;2022-10-12T03:06:03;6.37;;;2.87;;
50585;SDS011;36542;51.700;8.846;2022-10-12T03:08:29;13.77;;;3.50;;
50585;SDS011;36542;51.700;8.846;2022-10-12T03:10:59;14.27;;;3.53;;
50585;SDS011;36542;51.700;8.846;2022-10-12T03:13:29;8.53;;;3.03;;
50585;SDS011;36542;51.700;8.846;2022-10-12T03:16:02;12.30;;;3.40;;
50585;SDS011;36542;51.700;8.846;2022-10-12T03:18:32;13.90;;;4.10;;
50585;SDS011;36542;51.700;8.846;2022-10-12T03:20:58;7.17;;;3.37;;
50585;SDS011;36542;51.700;8.846;2022-10-12T03:23:24;11.90;;;3.30;;
50585;SDS011;36542;51.700;8.846;2022-10-12T03:25:50;7.33;;;3.10;;
50585;SDS011;36542;51.700;8.846;2022-10-12T03:28:16;14.90;;;3.43;;
50585;SDS011;36542;51.700;8.846;2022-10-12T03:30:42;11.97;;;3.20;;
50585;SDS011;36542;51.700;8.846;2022-10-12T03:33:07;15.17;;;3.20;;
50585;SDS011;36542;51.700;8.846;2022-10-12T03:35:33;13.87;;;4.07;;
50585;SDS011;36542;51.700;8.846;2022-10-12T03:37:59;10.37;;;3.10;;
50585;SDS011;36542;51.700;8.846;2022-10-12T03:40:24;8.33;;;3.33;;
50585;SDS011;36542;51.700;8.846;2022-10-12T03:42:50;7.03;;;3.20;;
50585;SDS011;36542;51.700;8.846;2022-10-12T03:45:15;7.57;;;3.67;;
50585;SDS011;36542;51.700;8.846;2022-10-12T03:47:41;12.27;;;3.37;;
50585;SDS011;36542;51.700;8.846;2022-10-12T03:50:06;12.53;;;3.90;;
50585;SDS011;36542;51.700;8.846;2022-10-12T03:52:32;11.27;;;3.67;;
50585;SDS011;36542;51.700;8.846;2022-10-12T03:54:58;13.23;;;3.73;;
50585;SDS011;36542;51.700;8.846;2022-10-12T03:57:23;10.90;;;4.13;;
50585;SDS011;36542;51.700;8.846;2022-10-12T03:59:49;7.90;;;3.63;;
50585;SDS011;36542;51.700;8.846;2022-10-12T04:02:15;15.70;;;3.70;;
50585;SDS011;36542;51.700;8.846;2022-10-12T04:04:40;13.60;;;4.60;;
50585;SDS011;36542;51.700;8.846;2022-10-12T04:07:06;8.40;;;3.53;;
50585;SDS011;36542;51.700;8.846;2022-10-12T04:09:32;22.07;;;4.23;;
50585;SDS011;36542;51.700;8.846;2022-10-12T04:11:57;14.50;;;4.17;;
50585;SDS011;36542;51.700;8.846;2022-10-12T04:14:23;11.33;;;4.67;;
50585;SDS011;36542;51.700;8.846;2022-10-12T04:16:48;10.30;;;3.77;;
50585;SDS011;36542;51.700;8.846;2022-10-12T04:19:16;13.10;;;4.30;;
50585;SDS011;36542;51.700;8.846;2022-10-12T04:21:42;8.97;;;4.00;;
50585;SDS011;36542;51.700;8.846;2022-10-12T04:24:07;12.13;;;3.80;;
50585;SDS011;36542;51.700;8.846;2022-10-12T04:26:33;11.23;;;4.10;;
50585;SDS011;36542;51.700;8.846;2022-10-12T04:28:58;11.37;;;4.23;;
50585;SDS011;36542;51.700;8.846;2022-10-12T04:31:24;11.07;;;4.10;;
50585;SDS011;36542;51.700;8.846;2022-10-12T04:33:51;16.13;;;4.20;;
50585;SDS011;36542;51.700;8.846;2022-10-12T04:36:20;18.90;;;5.47;;
50585;SDS011;36542;51.700;8.846;2022-10-12T04:38:47;10.10;;;4.07;;
50585;SDS011;36542;51.700;8.846;2022-10-12T04:41:13;8.90;;;4.00;;
50585;SDS011;36542;51.700;8.846;2022-10-12T04:43:38;17.37;;;3.93;;
50585;SDS011;36542;51.700;8.846;2022-10-12T04:46:04;11.47;;;3.80;;
50585;SDS011;36542;51.700;8.846;2022-10-12T04:48:29;12.70;;;4.17;;
50585;SDS011;36542;51.700;8.846;2022-10-12T04:50:55;13.93;;;4.63;;
50585;SDS011;36542;51.700;8.846;2022-10-12T04:53:20;14.10;;;4.00;;
50585;SDS011;36542;51.700;8.846;2022-10-12T04:55:46;8.97;;;3.20;;
50585;SDS011;36542;51.700;8.846;2022-10-12T04:58:11;12.83;;;4.40;;
50585;SDS011;36542;51.700;8.846;2022-10-12T05:00:37;11.23;;;3.90;;
50585;SDS011;36542;51.700;8.846;2022-10-12T05:03:03;10.53;;;4.23;;
50585;SDS011;36542;51.700;8.846;2022-10-12T05:05:29;11.93;;;4.30;;
50585;SDS011;36542;51.700;8.846;2022-10-12T05:07:55;10.93;;;3.70;;
50585;SDS011;36542;51.700;8.846;2022-10-12T05:10:20;9.10;;;3.80;;
50585;SDS011;36542;51.700;8.846;2022-10-12T05:12:46;11.67;;;3.97;;
50585;SDS011;36542;51.700;8.846;2022-10-12T05:15:11;6.03;;;4.13;;
50585;SDS011;36542;51.700;8.846;2022-10-12T05:17:37;13.57;;;4.43;;
50585;SDS011;36542;51.700;8.846;2022-10-12T05:20:03;11.17;;;3.90;;
50585;SDS011;36542;51.700;8.846;2022-10-12T05:22:29;8.30;;;3.77;;
50585;SDS011;36542;51.700;8.846;2022-10-12T05:24:55;9.73;;;4.43;;
50585;SDS011;36542;51.700;8.846;2022-10-12T05:27:20;9.20;;;3.80;;
50585;SDS011;36542;51.700;8.846;2022-10-12T05:29:46;14.53;;;4.97;;
50585;SDS011;36542;51.700;8.846;2022-10-12T05:32:12;15.30;;;4.97;;
50585;SDS011;36542;51.700;8.846;2022-10-12T05:34:38;10.47;;;4.40;;
50585;SDS011;36542;51.700;8.846;2022-10-12T05:37:04;12.93;;;4.10;;
50585;SDS011;36542;51.700;8.846;2022-10-12T05:39:29;8.57;;;4.33;;
50585;SDS011;36542;51.700;8.846;2022-10-12T05:41:55;13.17;;;4.03;;
50585;SDS011;36542;51.700;8.846;2022-10-12T05:44:20;15.80;;;5.20;;
50585;SDS011;36542;51.700;8.846;2022-10-12T05:46:46;10.50;;;4.90;;
50585;SDS011;36542;51.700;8.846;2022-10-12T05:49:11;12.43;;;4.70;;
50585;SDS011;36542;51.700;8.846;2022-10-12T05:51:37;8.53;;;4.03;;
50585;SDS011;36542;51.700;8.846;2022-10-12T05:54:04;12.90;;;4.47;;
50585;SDS011;36542;51.700;8.846;2022-10-12T05:56:30;11.70;;;4.63;;
50585;SDS011;36542;51.700;8.846;2022-10-12T05:58:55;13.57;;;4.03;;
50585;SDS011;36542;51.700;8.846;2022-10-12T06:01:21;11.50;;;4.40;;
50585;SDS011;36542;51.700;8.846;2022-10-12T06:03:46;13.77;;;5.20;;
50585;SDS011;36542;51.700;8.846;2022-10-12T06:06:12;15.53;;;4.47;;
50585;SDS011;36542;51.700;8.846;2022-10-12T06:08:37;8.87;;;4.47;;
50585;SDS011;36542;51.700;8.846;2022-10-12T06:11:03;14.70;;;3.97;;
50585;SDS011;36542;51.700;8.846;2022-10-12T06:13:29;12.33;;;4.30;;
50585;SDS011;36542;51.700;8.846;2022-10-12T06:15:55;16.20;;;4.67;;
50585;SDS011;36542;51.700;8.846;2022-10-12T06:18:20;16.00;;;4.87;;
50585;SDS011;36542;51.700;8.846;2022-10-12T06:20:47;11.70;;;5.23;;
50585;SDS011;36542;51.700;8.846;2022-10-12T06:23:17;13.10;;;5.10;;
50585;SDS011;36542;51.700;8.846;2022-10-12T06:25:47;15.30;;;5.63;;
50585;SDS011;36542;51.700;8.846;2022-10-12T06:28:14;9.37;;;5.30;;
50585;SDS011;36542;51.700;8.846;2022-10-12T06:30:40;13.23;;;4.27;;
50585;SDS011;36542;51.700;8.846;2022-10-12T06:33:06;13.10;;;4.80;;
50585;SDS011;36542;51.700;8.846;2022-10-12T06:35:32;12.63;;;4.23;;
50585;SDS011;36542;51.700;8.846;2022-10-12T06:37:58;12.00;;;5.63;;
50585;SDS011;36542;51.700;8.846;2022-10-12T06:40:23;13.40;;;4.50;;
50585;SDS011;36542;51.700;8.846;2022-10-12T06:42:49;11.30;;;3.73;;
50585;SDS011;36542;51.700;8.846;2022-10-12T06:45:15;9.43;;;3.80;;
50585;SDS011;36542;51.700;8.846;2022-10-12T06:47:40;10.53;;;4.07;;
50585;SDS011;36542;51.700;8.846;2022-10-12T06:50:06;6.77;;;3.30;;
50585;SDS011;36542;51.700;8.846;2022-10-12T06:52:33;9.90;;;4.03;;
50585;SDS011;36542;51.700;8.846;2022-10-12T06:54:59;7.87;;;3.67;;
50585;SDS011;36542;51.700;8.846;2022-10-12T06:57:25;10.43;;;4.10;;
50585;SDS011;36542;51.700;8.846;2022-10-12T06:59:50;8.90;;;3.83;;
50585;SDS011;36542;51.700;8.846;2022-10-12T07:02:16;11.33;;;3.50;;
50585;SDS011;36542;51.700;8.846;2022-10-12T07:04:41;8.03;;;3.57;;
50585;SDS011;36542;51.700;8.846;2022-10-12T07:07:07;10.83;;;3.87;;
50585;SDS011;36542;51.700;8.846;2022-10-12T07:09:33;9.13;;;3.70;;
50585;SDS011;36542;51.700;8.846;2022-10-12T07:11:59;9.03;;;3.60;;
50585;SDS011;36542;51.700;8.846;2022-10-12T07:14:24;8.33;;;4.07;;
50585;SDS011;36542;51.700;8.846;2022-10-12T07:16:50;9.57;;;3.70;;
50585;SDS011;36542;51.700;8.846;2022-10-12T07:19:16;4.77;;;3.20;;
50585;SDS011;36542;51.700;8.846;2022-10-12T07:21:41;8.50;;;3.87;;
50585;SDS011;36542;51.700;8.846;2022-10-12T07:24:09;8.80;;;3.90;;
50585;SDS011;36542;51.700;8.846;2022-10-12T07:26:36;10.07;;;3.77;;
50585;SDS011;36542;51.700;8.846;2022-10-12T07:29:02;7.83;;;3.67;;
50585;SDS011;36542;51.700;8.846;2022-10-12T07:31:27;6.10;;;3.13;;
50585;SDS011;36542;51.700;8.846;2022-10-12T07:33:53;9.43;;;3.53;;
50585;SDS011;36542;51.700;8.846;2022-10-12T07:36:19;9.13;;;3.47;;
50585;SDS011;36542;51.700;8.846;2022-10-12T07:38:44;7.83;;;3.53;;
50585;SDS011;36542;51.700;8.846;2022-10-12T07:41:13;9.20;;;3.90;;
50585;SDS011;36542;51.700;8.846;2022-10-12T07:43:39;9.93;;;3.30;;
50585;SDS011;36542;51.700;8.846;2022-10-12T07:46:05;6.87;;;3.50;;
50585;SDS011;36542;51.700;8.846;2022-10-12T07:48:30;10.60;;;4.00;;
50585;SDS011;36542;51.700;8.846;2022-10-12T07:51:03;9.30;;;3.40;;
50585;SDS011;36542;51.700;8.846;2022-10-12T07:53:30;7.13;;;3.17;;
50585;SDS011;36542;51.700;8.846;2022-10-12T07:56:01;8.90;;;3.83;;
50585;SDS011;36542;51.700;8.846;2022-10-12T07:58:29;8.00;;;3.67;;
50585;SDS011;36542;51.700;8.846;2022-10-12T08:00:55;8.57;;;3.03;;
50585;SDS011;36542;51.700;8.846;2022-10-12T08:03:21;7.03;;;2.80;;
50585;SDS011;36542;51.700;8.846;2022-10-12T08:05:46;7.10;;;2.97;;
50585;SDS011;36542;51.700;8.846;2022-10-12T08:08:12;8.20;;;3.87;;
50585;SDS011;36542;51.700;8.846;2022-10-12T08:10:38;7.17;;;3.30;;
50585;SDS011;36542;51.700;8.846;2022-10-12T08:13:03;7.90;;;3.00;;
50585;SDS011;36542;51.700;8.846;2022-10-12T08:15:29;6.70;;;3.00;;
50585;SDS011;36542;51.700;8.846;2022-10-12T08:17:54;6.47;;;2.50;;
50585;SDS011;36542;51.700;8.846;2022-10-12T08:20:20;8.10;;;2.90;;
50585;SDS011;36542;51.700;8.846;2022-10-12T08:22:46;7.57;;;3.00;;
50585;SDS011;36542;51.700;8.846;2022-10-12T08:25:11;6.87;;;2.80;;
50585;SDS011;36542;51.700;8.846;2022-10-12T08:27:37;5.53;;;2.83;;
50585;SDS011;36542;51.700;8.846;2022-10-12T08:30:03;34.00;;;4.73;;
50585;SDS011;36542;51.700;8.846;2022-10-12T08:32:30;5.37;;;2.80;;
50585;SDS011;36542;51.700;8.846;2022-10-12T08:34:56;5.53;;;2.77;;
50585;SDS011;36542;51.700;8.846;2022-10-12T08:37:22;12.73;;;3.17;;
50585;SDS011;36542;51.700;8.846;2022-10-12T08:39:47;7.30;;;2.23;;
50585;SDS011;36542;51.700;8.846;2022-10-12T08:42:26;8.07;;;2.33;;
50585;SDS011;36542;51.700;8.846;2022-10-12T08:47:48;7.00;;;2.57;;
50585;SDS011;36542;51.700;8.846;2022-10-12T08:50:30;4.87;;;1.87;;
50585;SDS011;36542;51.700;8.846;2022-10-12T08:53:02;6.90;;;2.20;;
50585;SDS011;36542;51.700;8.846;2022-10-12T08:55:38;6.50;;;1.97;;
50585;SDS011;36542;51.700;8.846;2022-10-12T08:58:21;6.57;;;2.03;;
50585;SDS011;36542;51.700;8.846;2022-10-12T09:00:51;6.80;;;2.13;;
50585;SDS011;36542;51.700;8.846;2022-10-12T09:06:18;6.30;;;2.37;;
50585;SDS011;36542;51.700;8.846;2022-10-12T09:16:36;11.10;;;2.37;;
50585;SDS011;36542;51.700;8.846;2022-10-12T09:19:10;6.57;;;2.43;;
50585;SDS011;36542;51.700;8.846;2022-10-12T09:21:41;7.50;;;2.07;;
50585;SDS011;36542;51.700;8.846;2022-10-12T09:24:11;5.70;;;2.40;;
50585;SDS011;36542;51.700;8.846;2022-10-12T09:26:43;6.65;;;2.15;;
50585;SDS011;36542;51.700;8.846;2022-10-12T09:29:20;5.03;;;1.95;;
50585;SDS011;36542;51.700;8.846;2022-10-12T09:34:35;5.80;;;2.20;;
50585;SDS011;36542;51.700;8.846;2022-10-12T09:37:01;6.87;;;2.30;;
50585;SDS011;36542;51.700;8.846;2022-10-12T09:41:59;10.90;;;2.80;;
50585;SDS011;36542;51.700;8.846;2022-10-12T09:44:34;5.80;;;2.30;;
50585;SDS011;36542;51.700;8.846;2022-10-12T09:49:48;4.53;;;2.07;;
50585;SDS011;36542;51.700;8.846;2022-10-12T09:52:16;6.27;;;2.10;;
50585;SDS011;36542;51.700;8.846;2022-10-12T09:54:54;6.83;;;2.57;;
50585;SDS011;36542;51.700;8.846;2022-10-12T09:57:27;6.67;;;2.37;;
50585;SDS011;36542;51.700;8.846;2022-10-12T10:00:27;7.17;;;2.50;;
50585;SDS011;36542;51.700;8.846;2022-10-12T10:03:00;7.37;;;2.57;;
50585;SDS011;36542;51.700;8.846;2022-10-12T10:05:31;7.07;;;2.00;;
50585;SDS011;36542;51.700;8.846;2022-10-12T10:10:49;7.73;;;2.63;;
50585;SDS011;36542;51.700;8.846;2022-10-12T10:13:16;3.83;;;2.00;;
50585;SDS011;36542;51.700;8.846;2022-10-12T10:15:45;8.83;;;2.50;;
50585;SDS011;36542;51.700;8.846;2022-10-12T10:20:42;4.88;;;2.20;;
50585;SDS011;36542;51.700;8.846;2022-10-12T10:23:21;4.13;;;1.95;;
50585;SDS011;36542;51.700;8.846;2022-10-12T10:25:53;7.25;;;2.20;;
50585;SDS011;36542;51.700;8.846;2022-10-12T10:28:40;6.18;;;2.03;;
50585;SDS011;36542;51.700;8.846;2022-10-12T10:33:45;6.10;;;1.95;;
50585;SDS011;36542;51.700;8.846;2022-10-12T10:36:54;7.03;;;2.42;;
50585;SDS011;36542;51.700;8.846;2022-10-12T10:39:24;6.60;;;2.33;;
50585;SDS011;36542;51.700;8.846;2022-10-12T10:41:52;4.07;;;1.70;;
50585;SDS011;36542;51.700;8.846;2022-10-12T10:44:24;7.65;;;2.13;;
50585;SDS011;36542;51.700;8.846;2022-10-12T10:46:55;6.20;;;2.10;;
50585;SDS011;36542;51.700;8.846;2022-10-12T10:49:33;5.73;;;2.10;;
50585;SDS011;36542;51.700;8.846;2022-10-12T10:52:05;6.17;;;2.07;;
50585;SDS011;36542;51.700;8.846;2022-10-12T10:54:34;5.47;;;1.93;;
50585;SDS011;36542;51.700;8.846;2022-10-12T11:02:44;2.90;;;1.63;;
50585;SDS011;36542;51.700;8.846;2022-10-12T11:05:21;4.53;;;2.37;;
50585;SDS011;36542;51.700;8.846;2022-10-12T11:07:58;4.60;;;2.10;;
50585;SDS011;36542;51.700;8.846;2022-10-12T11:13:00;4.95;;;1.75;;
50585;SDS011;36542;51.700;8.846;2022-10-12T11:15:34;5.55;;;2.15;;
50585;SDS011;36542;51.700;8.846;2022-10-12T11:18:11;8.18;;;2.22;;
50585;SDS011;36542;51.700;8.846;2022-10-12T11:20:50;6.13;;;2.75;;
50585;SDS011;36542;51.700;8.846;2022-10-12T11:23:27;5.80;;;2.13;;
50585;SDS011;36542;51.700;8.846;2022-10-12T11:28:28;5.75;;;2.40;;
50585;SDS011;36542;51.700;8.846;2022-10-12T11:30:56;6.93;;;2.07;;
50585;SDS011;36542;51.700;8.846;2022-10-12T11:33:24;6.00;;;2.50;;
50585;SDS011;36542;51.700;8.846;2022-10-12T11:35:53;7.10;;;2.77;;
50585;SDS011;36542;51.700;8.846;2022-10-12T11:41:33;4.30;;;2.80;;
50585;SDS011;36542;51.700;8.846;2022-10-12T11:44:26;7.60;;;2.87;;
50585;SDS011;36542;51.700;8.846;2022-10-12T11:46:55;4.13;;;2.47;;
50585;SDS011;36542;51.700;8.846;2022-10-12T11:49:27;6.33;;;2.87;;
50585;SDS011;36542;51.700;8.846;2022-10-12T11:51:57;6.30;;;2.33;;
50585;SDS011;36542;51.700;8.846;2022-10-12T11:56:56;6.70;;;2.90;;
50585;SDS011;36542;51.700;8.846;2022-10-12T11:59:35;6.13;;;2.70;;
50585;SDS011;36542;51.700;8.846;2022-10-12T12:02:23;8.17;;;2.60;;
50585;SDS011;36542;51.700;8.846;2022-10-12T12:04:56;6.53;;;2.80;;
50585;SDS011;36542;51.700;8.846;2022-10-12T12:16:25;5.93;;;2.90;;
50585;SDS011;36542;51.700;8.846;2022-10-12T12:21:16;8.17;;;2.60;;
50585;SDS011;36542;51.700;8.846;2022-10-12T12:23:50;6.07;;;3.37;;
50585;SDS011;36542;51.700;8.846;2022-10-12T12:26:18;5.60;;;2.87;;
50585;SDS011;36542;51.700;8.846;2022-10-12T12:28:50;8.03;;;3.10;;
50585;SDS011;36542;51.700;8.846;2022-10-12T12:31:32;8.57;;;3.20;;
50585;SDS011;36542;51.700;8.846;2022-10-12T12:34:02;5.07;;;2.80;;
50585;SDS011;36542;51.700;8.846;2022-10-12T12:36:47;5.90;;;2.53;;
50585;SDS011;36542;51.700;8.846;2022-10-12T12:39:23;3.73;;;2.50;;
50585;SDS011;36542;51.700;8.846;2022-10-12T12:41:57;7.40;;;3.10;;
50585;SDS011;36542;51.700;8.846;2022-10-12T12:52:27;5.77;;;3.07;;
50585;SDS011;36542;51.700;8.846;2022-10-12T13:00:45;7.37;;;3.47;;
50585;SDS011;36542;51.700;8.846;2022-10-12T13:09:43;7.73;;;2.80;;
50585;SDS011;36542;51.700;8.846;2022-10-12T13:15:17;6.53;;;2.80;;
50585;SDS011;36542;51.700;8.846;2022-10-12T13:20:30;10.27;;;3.40;;
50585;SDS011;36542;51.700;8.846;2022-10-12T13:22:58;5.77;;;2.93;;
50585;SDS011;36542;51.700;8.846;2022-10-12T13:25:29;7.03;;;3.13;;
50585;SDS011;36542;51.700;8.846;2022-10-12T13:28:09;6.97;;;2.73;;
50585;SDS011;36542;51.700;8.846;2022-10-12T13:30:45;5.57;;;3.07;;
50585;SDS011;36542;51.700;8.846;2022-10-12T13:33:27;6.27;;;2.67;;
50585;SDS011;36542;51.700;8.846;2022-10-12T13:38:44;6.20;;;2.90;;
50585;SDS011;36542;51.700;8.846;2022-10-12T13:41:10;5.87;;;2.60;;
50585;SDS011;36542;51.700;8.846;2022-10-12T13:44:00;6.93;;;2.77;;
50585;SDS011;36542;51.700;8.846;2022-10-12T13:49:12;5.10;;;3.13;;
50585;SDS011;36542;51.700;8.846;2022-10-12T13:54:47;9.00;;;3.40;;
50585;SDS011;36542;51.700;8.846;2022-10-12T13:57:20;7.93;;;3.43;;
50585;SDS011;36542;51.700;8.846;2022-10-12T14:00:20;6.63;;;2.83;;
50585;SDS011;36542;51.700;8.846;2022-10-12T14:03:02;8.40;;;3.37;;
50585;SDS011;36542;51.700;8.846;2022-10-12T14:05:30;12.67;;;3.43;;
50585;SDS011;36542;51.700;8.846;2022-10-12T14:07:58;6.10;;;2.70;;
50585;SDS011;36542;51.700;8.846;2022-10-12T14:10:28;6.70;;;3.27;;
50585;SDS011;36542;51.700;8.846;2022-10-12T14:12:56;6.00;;;3.33;;
50585;SDS011;36542;51.700;8.846;2022-10-12T14:15:22;7.70;;;3.07;;
50585;SDS011;36542;51.700;8.846;2022-10-12T14:17:51;8.17;;;3.10;;
50585;SDS011;36542;51.700;8.846;2022-10-12T14:22:56;7.63;;;3.53;;
50585;SDS011;36542;51.700;8.846;2022-10-12T14:25:27;6.53;;;2.93;;
50585;SDS011;36542;51.700;8.846;2022-10-12T14:28:03;8.20;;;3.07;;
50585;SDS011;36542;51.700;8.846;2022-10-12T14:30:31;7.97;;;3.30;;
50585;SDS011;36542;51.700;8.846;2022-10-12T14:33:10;6.07;;;3.10;;
50585;SDS011;36542;51.700;8.846;2022-10-12T14:35:46;5.23;;;2.83;;
50585;SDS011;36542;51.700;8.846;2022-10-12T14:44:02;9.60;;;3.60;;
50585;SDS011;36542;51.700;8.846;2022-10-12T14:49:23;6.93;;;3.00;;
50585;SDS011;36542;51.700;8.846;2022-10-12T14:51:50;8.27;;;3.60;;
50585;SDS011;36542;51.700;8.846;2022-10-12T14:54:17;7.90;;;3.33;;
50585;SDS011;36542;51.700;8.846;2022-10-12T14:56:43;8.67;;;3.40;;
50585;SDS011;36542;51.700;8.846;2022-10-12T14:59:09;7.13;;;3.03;;
50585;SDS011;36542;51.700;8.846;2022-10-12T15:01:34;8.57;;;3.10;;
50585;SDS011;36542;51.700;8.846;2022-10-12T15:04:00;6.47;;;3.40;;
50585;SDS011;36542;51.700;8.846;2022-10-12T15:06:26;4.83;;;3.27;;
50585;SDS011;36542;51.700;8.846;2022-10-12T15:08:51;8.20;;;4.20;;
50585;SDS011;36542;51.700;8.846;2022-10-12T15:11:17;6.60;;;3.70;;
50585;SDS011;36542;51.700;8.846;2022-10-12T15:13:43;7.20;;;3.97;;
50585;SDS011;36542;51.700;8.846;2022-10-12T15:16:17;9.53;;;5.03;;
50585;SDS011;36542;51.700;8.846;2022-10-12T15:18:46;5.73;;;3.77;;
50585;SDS011;36542;51.700;8.846;2022-10-12T15:21:12;6.93;;;3.13;;
50585;SDS011;36542;51.700;8.846;2022-10-12T15:23:38;7.77;;;3.60;;
50585;SDS011;36542;51.700;8.846;2022-10-12T15:26:04;10.00;;;3.97;;
50585;SDS011;36542;51.700;8.846;2022-10-12T15:28:30;7.27;;;3.40;;
50585;SDS011;36542;51.700;8.846;2022-10-12T15:30:56;6.43;;;3.87;;
50585;SDS011;36542;51.700;8.846;2022-10-12T15:33:26;8.53;;;3.67;;
50585;SDS011;36542;51.700;8.846;2022-10-12T15:35:53;38.00;;;21.73;;
50585;SDS011;36542;51.700;8.846;2022-10-12T15:38:19;53.53;;;32.17;;
50585;SDS011;36542;51.700;8.846;2022-10-12T15:40:45;78.23;;;45.07;;
50585;SDS011;36542;51.700;8.846;2022-10-12T15:43:10;26.20;;;15.33;;
50585;SDS011;36542;51.700;8.846;2022-10-12T15:45:37;8.43;;;4.50;;
50585;SDS011;36542;51.700;8.846;2022-10-12T15:48:04;11.80;;;8.07;;
50585;SDS011;36542;51.700;8.846;2022-10-12T15:50:36;11.93;;;8.80;;
50585;SDS011;36542;51.700;8.846;2022-10-12T15:53:04;11.43;;;8.73;;
50585;SDS011;36542;51.700;8.846;2022-10-12T15:55:30;14.67;;;7.30;;
50585;SDS011;36542;51.700;8.846;2022-10-12T15:57:56;11.80;;;4.93;;
50585;SDS011;36542;51.700;8.846;2022-10-12T16:00:23;9.83;;;4.50;;
50585;SDS011;36542;51.700;8.846;2022-10-12T16:02:51;7.30;;;4.00;;
50585;SDS011;36542;51.700;8.846;2022-10-12T16:05:21;6.93;;;4.20;;
50585;SDS011;36542;51.700;8.846;2022-10-12T16:07:50;11.47;;;4.20;;
50585;SDS011;36542;51.700;8.846;2022-10-12T16:10:17;13.17;;;4.77;;
50585;SDS011;36542;51.700;8.846;2022-10-12T16:12:45;8.23;;;4.90;;
50585;SDS011;36542;51.700;8.846;2022-10-12T16:15:13;13.40;;;5.63;;
50585;SDS011;36542;51.700;8.846;2022-10-12T16:17:41;10.60;;;4.87;;
50585;SDS011;36542;51.700;8.846;2022-10-12T16:20:07;13.70;;;4.53;;
50585;SDS011;36542;51.700;8.846;2022-10-12T16:22:34;13.43;;;6.97;;
50585;SDS011;36542;51.700;8.846;2022-10-12T16:25:00;12.03;;;5.40;;
50585;SDS011;36542;51.700;8.846;2022-10-12T16:27:27;12.37;;;4.83;;
50585;SDS011;36542;51.700;8.846;2022-10-12T16:29:54;11.50;;;7.30;;
50585;SDS011;36542;51.700;8.846;2022-10-12T16:32:20;9.30;;;6.07;;
50585;SDS011;36542;51.700;8.846;2022-10-12T16:34:45;8.60;;;5.87;;
50585;SDS011;36542;51.700;8.846;2022-10-12T16:37:11;12.50;;;6.33;;
50585;SDS011;36542;51.700;8.846;2022-10-12T16:39:36;13.00;;;6.10;;
50585;SDS011;36542;51.700;8.846;2022-10-12T16:42:02;12.97;;;5.93;;
50585;SDS011;36542;51.700;8.846;2022-10-12T16:44:28;19.60;;;7.80;;
50585;SDS011;36542;51.700;8.846;2022-10-12T16:46:53;21.53;;;10.57;;
50585;SDS011;36542;51.700;8.846;2022-10-12T16:49:19;21.33;;;10.03;;
50585;SDS011;36542;51.700;8.846;2022-10-12T16:51:44;30.53;;;16.13;;
50585;SDS011;36542;51.700;8.846;2022-10-12T16:54:12;10.63;;;6.10;;
50585;SDS011;36542;51.700;8.846;2022-10-12T16:56:37;13.43;;;6.93;;
50585;SDS011;36542;51.700;8.846;2022-10-12T16:59:03;16.03;;;7.13;;
50585;SDS011;36542;51.700;8.846;2022-10-12T17:01:29;12.57;;;6.57;;
50585;SDS011;36542;51.700;8.846;2022-10-12T17:03:54;9.37;;;5.73;;
50585;SDS011;36542;51.700;8.846;2022-10-12T17:06:20;8.57;;;5.37;;